createdAt,value
2018-02-18T00:02:00.850Z,41.20
2018-02-18T00:04:28.314Z,35.70
2018-02-18T00:06:57.601Z,35.00
2018-02-18T00:09:25.329Z,38.90
2018-02-18T00:11:52.792Z,42.93
2018-02-18T00:14:24.181Z,36.17
2018-02-18T00:16:52.017Z,39.57
2018-02-18T00:19:19.476Z,44.50
2018-02-18T00:21:46.945Z,50.90
2018-02-18T00:24:14.705Z,47.30
2018-02-18T00:26:42.189Z,41.17
2018-02-18T00:29:09.645Z,50.77
2018-02-18T00:31:38.318Z,40.17
2018-02-18T00:34:05.782Z,35.37
2018-02-18T00:36:33.241Z,33.30
2018-02-18T00:39:00.950Z,42.20
2018-02-18T00:41:28.406Z,41.73
2018-02-18T00:43:55.860Z,59.20
2018-02-18T00:46:23.684Z,51.90
2018-02-18T00:48:51.136Z,53.90
2018-02-18T00:51:18.593Z,49.50
2018-02-18T00:53:46.374Z,54.83
2018-02-18T00:56:13.840Z,55.13
2018-02-18T00:58:41.317Z,69.93
2018-02-18T01:01:09.370Z,59.00
2018-02-18T01:03:36.837Z,47.90
2018-02-18T01:06:04.301Z,72.93
2018-02-18T01:08:32.665Z,72.33
2018-02-18T01:11:00.125Z,60.80
2018-02-18T01:13:27.585Z,60.80
2018-02-18T01:15:55.605Z,53.93
2018-02-18T01:18:23.068Z,58.47
2018-02-18T01:20:50.533Z,81.30
2018-02-18T01:23:18.226Z,59.20
2018-02-18T01:25:49.477Z,60.60
2018-02-18T01:28:16.937Z,54.50
2018-02-18T01:30:44.711Z,68.57
2018-02-18T01:33:12.175Z,70.23
2018-02-18T01:35:39.635Z,74.57
2018-02-18T01:38:07.326Z,59.30
2018-02-18T01:40:34.785Z,67.30
2018-02-18T01:43:02.258Z,76.43
2018-02-18T01:45:30.406Z,53.17
2018-02-18T01:47:57.865Z,73.90
2018-02-18T01:50:37.320Z,78.83
2018-02-18T01:53:04.776Z,61.07
2018-02-18T01:55:32.245Z,57.17
2018-02-18T01:58:00.034Z,59.50
2018-02-18T02:00:27.497Z,64.83
2018-02-18T02:02:54.955Z,85.33
2018-02-18T02:05:22.681Z,58.90
2018-02-18T02:07:50.139Z,56.57
2018-02-18T02:10:17.673Z,59.90
2018-02-18T02:12:45.358Z,54.40
2018-02-18T02:15:12.821Z,50.77
2018-02-18T02:17:40.289Z,55.37
2018-02-18T02:20:08.048Z,64.50
2018-02-18T02:22:35.509Z,71.80
2018-02-18T02:25:02.982Z,64.83
2018-02-18T02:27:30.736Z,54.33
2018-02-18T02:29:58.198Z,60.50
2018-02-18T02:32:25.662Z,63.33
2018-02-18T02:34:53.417Z,63.43
2018-02-18T02:37:20.881Z,65.60
2018-02-18T02:39:48.347Z,69.80
2018-02-18T02:42:16.120Z,60.40
2018-02-18T02:44:43.581Z,54.20
2018-02-18T02:47:11.038Z,59.17
2018-02-18T02:49:38.823Z,56.53
2018-02-18T02:52:06.300Z,59.77
2018-02-18T02:54:33.760Z,59.07
2018-02-18T02:57:01.484Z,51.27
2018-02-18T02:59:28.955Z,76.17
2018-02-18T03:01:56.420Z,63.07
2018-02-18T03:04:24.183Z,58.07
2018-02-18T03:06:51.654Z,58.50
2018-02-18T03:09:19.109Z,57.57
2018-02-18T03:11:46.861Z,65.37
2018-02-18T03:14:14.322Z,63.10
2018-02-18T03:16:41.780Z,64.90
2018-02-18T03:19:10.153Z,54.50
2018-02-18T03:21:37.616Z,60.83
2018-02-18T03:24:05.085Z,49.47
2018-02-18T03:26:32.846Z,64.87
2018-02-18T03:29:00.309Z,67.07
2018-02-18T03:31:27.769Z,79.30
2018-02-18T03:33:55.534Z,60.97
2018-02-18T03:36:22.992Z,65.30
2018-02-18T03:38:50.453Z,64.60
2018-02-18T03:41:18.537Z,70.40
2018-02-18T03:43:45.997Z,61.33
2018-02-18T03:46:13.450Z,65.27
2018-02-18T03:48:41.209Z,68.37
2018-02-18T03:51:08.684Z,58.53
2018-02-18T03:53:36.151Z,66.77
2018-02-18T03:56:03.893Z,72.03
2018-02-18T03:58:31.359Z,65.57
2018-02-18T04:00:58.822Z,69.13
2018-02-18T04:03:26.588Z,67.23
2018-02-18T04:05:54.057Z,85.83
2018-02-18T04:08:21.531Z,78.23
2018-02-18T04:10:49.280Z,77.07
2018-02-18T04:13:16.810Z,73.70
2018-02-18T04:15:44.257Z,67.20
2018-02-18T04:18:11.969Z,73.70
2018-02-18T04:20:39.420Z,78.93
2018-02-18T04:23:06.895Z,73.97
2018-02-18T04:25:34.650Z,91.23
2018-02-18T04:28:02.113Z,78.03
2018-02-18T04:30:29.588Z,73.00
2018-02-18T04:32:57.599Z,81.80
2018-02-18T04:35:25.100Z,80.83
2018-02-18T04:37:52.566Z,80.70
2018-02-18T04:40:20.535Z,76.20
2018-02-18T04:42:48.007Z,79.27
2018-02-18T04:45:15.459Z,67.30
2018-02-18T04:47:43.310Z,80.47
2018-02-18T04:50:10.766Z,77.10
2018-02-18T04:52:38.234Z,77.33
2018-02-18T04:55:06.323Z,75.60
2018-02-18T04:57:33.806Z,73.73
2018-02-18T05:00:01.262Z,67.63
2018-02-18T05:02:28.993Z,69.93
2018-02-18T05:04:56.454Z,78.00
2018-02-18T05:07:23.910Z,81.03
2018-02-18T05:09:51.681Z,76.30
2018-02-18T05:12:19.145Z,67.90
2018-02-18T05:14:47.302Z,72.13
2018-02-18T05:17:15.298Z,84.83
2018-02-18T05:19:42.757Z,71.20
2018-02-18T05:22:10.218Z,79.50
2018-02-18T05:24:37.941Z,86.00
2018-02-18T05:27:05.411Z,75.30
2018-02-18T05:29:32.873Z,68.30
2018-02-18T05:32:00.677Z,79.77
2018-02-18T05:34:28.138Z,89.30
2018-02-18T05:36:55.597Z,82.90
2018-02-18T05:39:24.589Z,101.50
2018-02-18T05:41:52.057Z,70.30
2018-02-18T05:44:19.517Z,78.43
2018-02-18T05:46:47.685Z,85.53
2018-02-18T05:49:15.145Z,69.47
2018-02-18T05:51:42.622Z,74.13
2018-02-18T05:54:10.540Z,92.53
2018-02-18T05:56:37.989Z,80.23
2018-02-18T05:59:05.445Z,84.67
2018-02-18T06:01:33.272Z,80.47
2018-02-18T06:04:00.725Z,72.73
2018-02-18T06:06:28.189Z,75.97
2018-02-18T06:08:55.950Z,77.00
2018-02-18T06:11:23.408Z,79.17
2018-02-18T06:13:50.870Z,80.70
2018-02-18T06:16:19.245Z,80.27
2018-02-18T06:18:46.713Z,73.60
2018-02-18T06:21:14.176Z,73.53
2018-02-18T06:23:41.937Z,70.13
2018-02-18T06:26:09.397Z,69.33
2018-02-18T06:28:36.857Z,67.93
2018-02-18T06:31:04.619Z,70.57
2018-02-18T06:33:32.076Z,66.67
2018-02-18T06:35:59.534Z,58.43
2018-02-18T06:38:27.302Z,77.63
2018-02-18T06:40:54.760Z,61.27
2018-02-18T06:43:22.305Z,73.77
2018-02-18T06:45:50.027Z,71.47
2018-02-18T06:48:17.497Z,65.13
2018-02-18T06:50:44.960Z,65.80
2018-02-18T06:53:12.635Z,58.67
2018-02-18T06:55:40.105Z,75.57
2018-02-18T06:58:07.566Z,68.23
2018-02-18T07:00:35.657Z,54.93
2018-02-18T07:03:03.116Z,68.07
2018-02-18T07:05:30.573Z,67.17
2018-02-18T07:07:58.289Z,50.97
2018-02-18T07:10:25.748Z,52.83
2018-02-18T07:12:53.225Z,54.10
2018-02-18T07:15:21.060Z,61.93
2018-02-18T07:17:49.130Z,68.37
2018-02-18T07:20:16.591Z,65.70
2018-02-18T07:22:44.346Z,61.00
2018-02-18T07:25:11.851Z,69.70
2018-02-18T07:27:39.292Z,71.80
2018-02-18T07:30:07.037Z,55.53
2018-02-18T07:32:34.493Z,50.60
2018-02-18T07:35:01.965Z,75.10
2018-02-18T07:37:30.341Z,63.03
2018-02-18T07:39:57.803Z,52.87
2018-02-18T07:42:25.266Z,62.30
2018-02-18T07:44:53.026Z,47.57
2018-02-18T07:47:20.488Z,56.30
2018-02-18T07:49:47.950Z,70.00
2018-02-18T07:52:15.670Z,49.83
2018-02-18T07:54:43.124Z,75.57
2018-02-18T07:57:10.589Z,61.90
2018-02-18T07:59:38.276Z,53.53
2018-02-18T08:02:05.730Z,56.37
2018-02-18T08:04:33.189Z,53.20
2018-02-18T08:07:01.080Z,52.53
2018-02-18T08:09:28.576Z,53.10
2018-02-18T08:11:56.038Z,40.37
2018-02-18T08:14:23.777Z,58.00
2018-02-18T08:16:51.235Z,68.40
2018-02-18T08:19:19.114Z,47.70
2018-02-18T08:21:46.762Z,56.20
2018-02-18T08:24:14.222Z,45.37
2018-02-18T08:26:41.688Z,51.30
2018-02-18T08:29:09.454Z,51.27
2018-02-18T08:31:36.913Z,46.80
2018-02-18T08:34:04.381Z,49.17
2018-02-18T08:36:32.132Z,50.60
2018-02-18T08:38:59.577Z,54.53
2018-02-18T08:41:27.034Z,52.57
2018-02-18T08:43:54.883Z,61.40
2018-02-18T08:46:22.333Z,44.83
2018-02-18T08:48:49.801Z,38.87
2018-02-18T08:51:17.505Z,42.53
2018-02-18T08:53:44.970Z,51.67
2018-02-18T08:56:12.416Z,45.30
2018-02-18T08:58:40.213Z,53.27
2018-02-18T09:01:07.664Z,49.07
2018-02-18T09:03:35.116Z,44.57
2018-02-18T09:06:03.197Z,50.67
2018-02-18T09:08:30.661Z,59.90
2018-02-18T09:10:58.122Z,45.90
2018-02-18T09:13:25.879Z,52.83
2018-02-18T09:15:53.349Z,49.13
2018-02-18T09:18:20.808Z,38.63
2018-02-18T09:20:49.174Z,36.53
2018-02-18T09:23:16.638Z,44.57
2018-02-18T09:25:44.081Z,39.27
2018-02-18T09:28:11.908Z,39.17
2018-02-18T09:30:39.333Z,44.07
2018-02-18T09:33:06.798Z,83.03
2018-02-18T09:35:34.472Z,52.97
2018-02-18T09:38:01.925Z,34.60
2018-02-18T09:40:29.380Z,36.33
2018-02-18T09:42:57.546Z,31.00
2018-02-18T09:45:24.997Z,33.50
2018-02-18T09:47:52.470Z,36.57
2018-02-18T09:50:20.244Z,45.60
2018-02-18T09:52:47.702Z,37.20
2018-02-18T09:55:15.164Z,41.93
2018-02-18T09:57:42.822Z,43.17
2018-02-18T10:00:10.282Z,33.33
2018-02-18T10:02:37.836Z,30.43
2018-02-18T10:05:05.601Z,35.23
2018-02-18T10:07:33.049Z,34.03
2018-02-18T10:10:00.502Z,41.40
2018-02-18T10:12:28.288Z,33.03
2018-02-18T10:14:55.737Z,29.77
2018-02-18T10:17:23.199Z,34.03
2018-02-18T10:19:50.905Z,32.93
2018-02-18T10:22:18.818Z,31.83
2018-02-18T10:24:46.270Z,29.53
2018-02-18T10:27:14.286Z,36.97
2018-02-18T10:29:41.745Z,31.10
2018-02-18T10:32:09.199Z,35.53
2018-02-18T10:34:36.965Z,33.90
2018-02-18T10:37:04.434Z,33.50
2018-02-18T10:39:31.889Z,30.50
2018-02-18T10:41:59.660Z,30.90
2018-02-18T10:44:27.114Z,54.63
2018-02-18T10:46:54.580Z,33.77
2018-02-18T10:49:22.220Z,37.73
2018-02-18T10:51:49.682Z,31.53
2018-02-18T10:54:17.188Z,49.60
2018-02-18T10:56:45.251Z,43.67
2018-02-18T10:59:12.733Z,38.93
2018-02-18T11:01:40.192Z,44.53
2018-02-18T11:04:08.025Z,40.40
2018-02-18T11:06:35.489Z,39.97
2018-02-18T11:09:02.969Z,32.30
2018-02-18T11:11:31.166Z,44.27
2018-02-18T11:13:59.541Z,43.50
2018-02-18T11:16:26.996Z,39.63
2018-02-18T11:18:54.945Z,39.73
2018-02-18T11:21:22.404Z,49.53
2018-02-18T11:23:51.462Z,39.60
2018-02-18T11:26:19.172Z,45.37
2018-02-18T11:28:46.621Z,45.80
2018-02-18T11:31:14.078Z,45.53
2018-02-18T11:33:41.893Z,43.37
2018-02-18T11:36:09.359Z,42.10
2018-02-18T11:38:36.817Z,42.53
2018-02-18T11:41:04.498Z,45.13
2018-02-18T11:43:31.974Z,39.43
2018-02-18T11:45:59.428Z,42.87
2018-02-18T11:48:27.266Z,47.67
2018-02-18T11:50:54.729Z,38.60
2018-02-18T11:53:22.189Z,42.63
2018-02-18T11:55:49.918Z,37.17
2018-02-18T11:58:17.380Z,45.60
2018-02-18T12:00:44.834Z,36.07
2018-02-18T12:03:12.882Z,36.40
2018-02-18T12:05:40.362Z,59.87
2018-02-18T12:08:07.818Z,40.10
2018-02-18T12:10:35.588Z,47.90
2018-02-18T12:13:03.037Z,44.10
2018-02-18T12:15:30.504Z,35.67
2018-02-18T12:17:58.568Z,38.03
2018-02-18T12:20:26.024Z,43.40
2018-02-18T12:22:53.480Z,39.43
2018-02-18T12:25:23.720Z,42.20
2018-02-18T12:27:51.173Z,43.93
2018-02-18T12:30:18.620Z,40.13
2018-02-18T12:32:46.429Z,42.87
2018-02-18T12:35:13.882Z,39.77
2018-02-18T12:37:41.331Z,50.17
2018-02-18T12:40:09.099Z,34.40
2018-02-18T12:42:36.552Z,42.10
2018-02-18T12:45:04.010Z,44.23
2018-02-18T12:47:31.802Z,31.10
2018-02-18T12:49:59.267Z,34.63
2018-02-18T12:52:26.713Z,33.90
2018-02-18T12:54:54.708Z,36.43
2018-02-18T12:57:22.157Z,36.13
2018-02-18T12:59:49.644Z,34.10
2018-02-18T13:02:17.486Z,35.87
2018-02-18T13:04:44.938Z,33.37
2018-02-18T13:07:12.393Z,38.50
2018-02-18T13:09:40.105Z,28.27
2018-02-18T13:12:07.576Z,33.93
2018-02-18T13:14:35.037Z,28.47
2018-02-18T13:17:02.849Z,29.10
2018-02-18T13:19:31.532Z,38.43
2018-02-18T13:21:58.981Z,28.83
2018-02-18T13:24:26.760Z,42.70
2018-02-18T13:26:55.210Z,30.57
2018-02-18T13:29:22.682Z,37.10
2018-02-18T13:31:50.534Z,26.33
2018-02-18T13:34:17.984Z,38.20
2018-02-18T13:36:45.444Z,41.37
2018-02-18T13:39:13.357Z,33.90
2018-02-18T13:41:40.806Z,31.20
2018-02-18T13:44:08.270Z,28.50
2018-02-18T13:46:36.042Z,25.47
2018-02-18T13:49:03.504Z,25.50
2018-02-18T13:51:31.714Z,30.40
2018-02-18T13:53:59.656Z,31.83
2018-02-18T13:56:27.112Z,37.20
2018-02-18T13:58:54.570Z,34.80
2018-02-18T14:01:22.654Z,33.87
2018-02-18T14:03:50.120Z,33.80
2018-02-18T14:06:17.578Z,36.17
2018-02-18T14:08:45.347Z,27.33
2018-02-18T14:11:12.803Z,30.00
2018-02-18T14:13:40.262Z,30.70
2018-02-18T14:16:08.025Z,29.83
2018-02-18T14:18:35.534Z,39.90
2018-02-18T14:21:02.993Z,51.33
2018-02-18T14:23:30.758Z,28.80
2018-02-18T14:25:58.221Z,33.37
2018-02-18T14:28:26.617Z,28.87
2018-02-18T14:30:54.318Z,29.10
2018-02-18T14:33:21.787Z,35.73
2018-02-18T14:35:49.235Z,39.60
2018-02-18T14:38:17.009Z,47.63
2018-02-18T14:40:44.461Z,40.33
2018-02-18T14:43:23.906Z,28.20
2018-02-18T14:46:02.960Z,30.17
2018-02-18T14:48:42.341Z,37.00
2018-02-18T14:51:21.480Z,26.67
2018-02-18T14:54:01.073Z,29.10
2018-02-18T14:56:40.187Z,29.83
2018-02-18T14:59:07.949Z,31.00
2018-02-18T15:01:35.405Z,35.80
2018-02-18T15:04:02.864Z,29.47
2018-02-18T15:06:30.691Z,27.73
2018-02-18T15:08:58.153Z,25.37
2018-02-18T15:11:25.875Z,30.90
2018-02-18T15:13:53.640Z,31.67
2018-02-18T15:16:21.106Z,32.43
2018-02-18T15:18:48.578Z,32.83
2018-02-18T15:21:16.356Z,63.27
2018-02-18T15:23:43.809Z,38.40
2018-02-18T15:26:11.269Z,31.20
2018-02-18T15:28:39.621Z,35.57
2018-02-18T15:31:07.093Z,37.90
2018-02-18T15:33:34.537Z,35.27
2018-02-18T15:36:02.310Z,29.27
2018-02-18T15:38:29.783Z,31.30
2018-02-18T15:40:57.242Z,51.93
2018-02-18T15:43:24.824Z,44.07
2018-02-18T15:45:52.293Z,39.40
2018-02-18T15:48:19.749Z,32.93
2018-02-18T15:50:47.710Z,38.93
2018-02-18T15:53:15.159Z,43.33
2018-02-18T15:55:42.621Z,28.27
2018-02-18T15:58:10.368Z,44.63
2018-02-18T16:00:37.822Z,46.50
2018-02-18T16:03:05.342Z,51.37
2018-02-18T16:05:33.073Z,37.20
2018-02-18T16:08:00.716Z,38.73
2018-02-18T16:10:28.196Z,44.57
2018-02-18T16:12:56.078Z,38.17
2018-02-18T16:15:23.528Z,49.53
2018-02-18T16:17:50.986Z,41.23
2018-02-18T16:20:19.050Z,60.93
2018-02-18T16:22:46.493Z,43.97
2018-02-18T16:25:13.944Z,47.47
2018-02-18T16:27:41.613Z,42.97
2018-02-18T16:30:09.581Z,49.87
2018-02-18T16:32:37.048Z,39.37
2018-02-18T16:35:05.028Z,46.20
2018-02-18T16:37:32.474Z,42.87
2018-02-18T16:39:59.936Z,52.93
2018-02-18T16:42:27.924Z,41.10
2018-02-18T16:44:55.394Z,51.13
2018-02-18T16:47:22.864Z,57.73
2018-02-18T16:49:50.551Z,46.00
2018-02-18T16:52:18.010Z,47.80
2018-02-18T16:54:45.469Z,48.10
2018-02-18T16:57:13.338Z,50.97
2018-02-18T16:59:40.794Z,51.13
2018-02-18T17:02:08.264Z,52.63
2018-02-18T17:04:36.107Z,65.40
2018-02-18T17:07:03.568Z,61.90
2018-02-18T17:09:31.030Z,62.60
2018-02-18T17:11:58.826Z,58.70
2018-02-18T17:14:26.295Z,50.23
2018-02-18T17:16:53.761Z,54.43
2018-02-18T17:19:21.676Z,59.80
2018-02-18T17:21:49.136Z,53.90
2018-02-18T17:24:16.602Z,53.93
2018-02-18T17:26:44.453Z,48.37
2018-02-18T17:29:11.915Z,49.03
2018-02-18T17:31:40.069Z,57.73
2018-02-18T17:34:08.027Z,58.63
2018-02-18T17:36:35.684Z,51.90
2018-02-18T17:39:02.967Z,55.63
2018-02-18T17:41:31.025Z,53.70
2018-02-18T17:43:58.491Z,66.27
2018-02-18T17:46:25.955Z,52.27
2018-02-18T17:48:54.369Z,68.87
2018-02-18T17:51:21.829Z,50.63
2018-02-18T17:53:49.292Z,58.70
2018-02-18T17:56:17.045Z,50.13
2018-02-18T17:58:44.512Z,59.47
2018-02-18T18:01:11.981Z,62.63
2018-02-18T18:03:39.760Z,50.73
2018-02-18T18:06:07.217Z,57.50
2018-02-18T18:08:34.682Z,56.30
2018-02-18T18:11:02.436Z,46.03
2018-02-18T18:13:29.920Z,49.23
2018-02-18T18:15:57.386Z,51.83
2018-02-18T18:18:25.412Z,48.37
2018-02-18T18:20:52.864Z,53.07
2018-02-18T18:23:20.338Z,59.73
2018-02-18T18:25:47.971Z,52.47
2018-02-18T18:28:15.426Z,54.90
2018-02-18T18:30:42.882Z,52.63
2018-02-18T18:33:11.970Z,48.37
2018-02-18T18:35:39.434Z,51.43
2018-02-18T18:38:06.895Z,47.37
2018-02-18T18:40:34.709Z,59.30
2018-02-18T18:43:02.158Z,55.10
2018-02-18T18:45:29.618Z,48.00
2018-02-18T18:47:57.443Z,55.00
2018-02-18T18:50:24.912Z,50.10
2018-02-18T18:52:52.372Z,47.83
2018-02-18T18:55:20.082Z,52.30
2018-02-18T18:57:47.543Z,45.03
2018-02-18T19:00:15.013Z,47.33
2018-02-18T19:02:42.772Z,48.33
2018-02-18T19:05:10.232Z,53.63
2018-02-18T19:07:37.701Z,37.20
2018-02-18T19:10:05.469Z,59.67
2018-02-18T19:12:32.938Z,54.97
2018-02-18T19:15:00.393Z,48.50
2018-02-18T19:17:28.130Z,50.47
2018-02-18T19:19:55.613Z,45.73
2018-02-18T19:22:23.065Z,43.43
2018-02-18T19:24:51.141Z,47.20
2018-02-18T19:27:18.629Z,46.67
2018-02-18T19:29:46.087Z,39.50
2018-02-18T19:32:13.820Z,40.00
2018-02-18T19:34:41.669Z,58.23
2018-02-18T19:37:09.152Z,35.47
2018-02-18T19:39:37.133Z,46.23
2018-02-18T19:42:04.595Z,33.13
2018-02-18T19:44:32.052Z,33.97
2018-02-18T19:46:59.762Z,32.33
2018-02-18T19:49:27.221Z,44.43
2018-02-18T19:51:54.675Z,32.10
2018-02-18T19:54:22.519Z,35.50
2018-02-18T19:56:49.972Z,30.57
2018-02-18T19:59:17.423Z,30.53
2018-02-18T20:01:45.186Z,38.73
2018-02-18T20:04:12.636Z,32.70
2018-02-18T20:06:40.084Z,35.50
2018-02-18T20:09:08.171Z,28.23
2018-02-18T20:11:35.629Z,33.93
2018-02-18T20:14:03.081Z,33.57
2018-02-18T20:16:30.860Z,49.77
2018-02-18T20:18:58.320Z,33.23
2018-02-18T20:21:25.777Z,35.17
2018-02-18T20:23:53.547Z,45.27
2018-02-18T20:26:21.003Z,30.70
2018-02-18T20:28:48.467Z,25.57
2018-02-18T20:31:16.241Z,31.87
2018-02-18T20:33:43.706Z,42.30
2018-02-18T20:36:11.534Z,27.17
2018-02-18T20:38:39.325Z,23.00
2018-02-18T20:41:06.783Z,30.43
2018-02-18T20:43:34.232Z,30.57
2018-02-18T20:46:01.967Z,31.63
2018-02-18T20:48:29.426Z,30.43
2018-02-18T20:50:56.881Z,26.63
2018-02-18T20:53:24.660Z,23.40
2018-02-18T20:55:52.124Z,24.60
2018-02-18T20:58:19.722Z,16.23
2018-02-18T21:00:47.366Z,21.23
2018-02-18T21:03:14.824Z,34.97
2018-02-18T21:05:42.289Z,13.87
2018-02-18T21:08:10.009Z,15.23
2018-02-18T21:10:37.487Z,16.07
2018-02-18T21:13:05.162Z,17.77
2018-02-18T21:15:32.833Z,12.43
2018-02-18T21:18:00.286Z,16.67
2018-02-18T21:20:27.754Z,20.43
2018-02-18T21:22:55.666Z,18.10
2018-02-18T21:25:23.118Z,15.90
2018-02-18T21:27:50.571Z,20.40
2018-02-18T21:30:18.348Z,25.67
2018-02-18T21:32:45.797Z,26.47
2018-02-18T21:35:13.254Z,39.17
2018-02-18T21:37:41.497Z,43.97
2018-02-18T21:40:08.958Z,22.73
2018-02-18T21:42:36.416Z,15.67
2018-02-18T21:45:04.335Z,14.90
2018-02-18T21:47:31.797Z,17.47
2018-02-18T21:49:59.308Z,16.03
2018-02-18T21:52:27.666Z,16.87
2018-02-18T21:54:55.658Z,14.47
2018-02-18T21:57:23.116Z,15.33
2018-02-18T21:59:50.986Z,12.30
2018-02-18T22:02:18.438Z,11.50
2018-02-18T22:04:46.225Z,12.17
2018-02-18T22:07:13.926Z,13.77
2018-02-18T22:09:41.371Z,9.93
2018-02-18T22:12:08.827Z,13.63
2018-02-18T22:14:36.804Z,11.30
2018-02-18T22:17:04.248Z,9.03
2018-02-18T22:19:31.693Z,9.53
2018-02-18T22:21:59.604Z,8.50
2018-02-18T22:24:27.078Z,14.13
2018-02-18T22:26:54.528Z,11.50
2018-02-18T22:29:22.297Z,11.20
2018-02-18T22:31:49.753Z,41.87
2018-02-18T22:34:17.218Z,17.70
2018-02-18T22:36:44.934Z,29.37
2018-02-18T22:39:12.523Z,12.13
2018-02-18T22:41:39.970Z,12.47
2018-02-18T22:44:07.927Z,10.60
2018-02-18T22:46:35.381Z,9.63
2018-02-18T22:49:02.847Z,11.87
2018-02-18T22:51:30.478Z,21.50
2018-02-18T22:53:57.921Z,14.10
2018-02-18T22:56:25.370Z,20.90
2018-02-18T22:58:53.362Z,12.00
2018-02-18T23:01:20.816Z,10.13
2018-02-18T23:03:48.363Z,16.20
2018-02-18T23:06:16.100Z,10.03
2018-02-18T23:08:43.563Z,16.63
2018-02-18T23:11:11.019Z,16.57
2018-02-18T23:13:39.031Z,17.47
2018-02-18T23:16:06.478Z,12.97
2018-02-18T23:18:33.929Z,18.20
2018-02-18T23:21:09.398Z,17.20
2018-02-18T23:23:36.864Z,17.07
2018-02-18T23:26:04.307Z,15.83
2018-02-18T23:28:32.159Z,13.37
2018-02-18T23:30:59.616Z,19.77
2018-02-18T23:33:27.070Z,13.30
2018-02-18T23:35:54.791Z,16.97
2018-02-18T23:38:22.244Z,13.57
2018-02-18T23:40:50.373Z,18.30
2018-02-18T23:43:18.078Z,15.47
2018-02-18T23:45:45.540Z,15.53
2018-02-18T23:48:12.993Z,18.93
2018-02-18T23:50:40.765Z,15.70
2018-02-18T23:53:08.218Z,13.43
2018-02-18T23:55:35.674Z,12.60
2018-02-18T23:58:03.458Z,19.17
